Date,TemperatureHighF,TemperatureAvgF,TemperatureLowF,DewpointHighF,DewpointAvgF,DewpointLowF,HumidityHigh,HumidityAvg,HumidityLow,PressureMaxIn,PressureMinIn,WindSpeedMaxMPH,WindSpeedAvgMPH,GustSpeedMaxMPH,PrecipitationSumIn
2013-1-1,79.3,63.0,49.4,64.0,55.7,46.3,92,78,55,30.23,30.05,7,1,15,0.00
2013-1-2,82.6,67.0,54.7,68.2,59.6,50.3,86,78,57,30.08,29.98,9,1,12,0.00
2013-1-3,72.2,64.0,59.0,66.4,58.9,53.5,86,83,79,30.17,30.03,12,2,18,0.00
2013-1-4,63.4,60.8,57.2,58.1,55.8,53.0,87,83,81,30.27,30.15,9,3,14,0.06
2013-1-5,77.3,64.6,56.0,65.2,59.2,53.0,90,83,65,30.30,30.19,8,2,12,0.01
2013-1-6,83.1,69.7,62.3,69.9,64.0,59.0,89,83,64,30.22,30.06,6,1,12,0.00
2013-1-7,72.0,66.1,59.6,63.8,60.6,56.1,90,83,69,30.22,30.12,10,3,16,0.00
2013-1-8,80.5,71.8,66.5,71.7,66.9,62.8,89,85,70,30.24,30.13,6,1,9,0.00
2013-1-9,80.4,73.0,67.6,72.2,68.2,64.0,90,85,74,30.32,30.21,10,2,15,0.00
2013-1-10,79.3,71.2,63.6,69.8,65.7,60.3,90,83,67,30.33,30.24,9,2,14,0.00
2013-1-11,81.2,70.1,60.0,71.4,64.5,57.1,92,83,64,30.28,30.17,10,2,17,0.00
2013-1-12,80.4,69.1,58.3,69.9,62.8,55.1,89,81,60,30.21,30.11,7,1,13,0.00
2013-1-13,80.8,69.9,57.5,69.2,63.3,54.3,89,80,60,30.17,30.08,8,2,13,0.00
2013-1-14,80.0,68.8,57.5,69.2,62.5,54.3,89,81,62,30.20,30.13,9,1,13,0.00
2013-1-15,80.3,69.8,61.2,70.6,64.1,57.6,89,83,67,30.16,30.07,9,2,15,0.02
2013-1-16,86.6,70.3,57.7,69.0,62.8,54.5,89,79,49,30.12,30.01,6,1,12,0.00
2013-1-17,85.3,67.2,53.3,70.9,60.4,46.6,89,79,53,30.09,29.92,17,4,25,0.00
2013-1-18,69.8,56.0,42.7,60.8,49.9,36.5,88,80,66,30.27,30.10,14,5,23,0.14
2013-1-19,75.3,67.7,63.6,65.3,60.9,57.1,88,79,69,30.28,30.15,10,3,16,0.00
2013-1-20,75.0,64.8,58.9,67.8,59.7,54.6,89,84,72,30.17,30.07,10,2,18,0.00
2013-1-21,75.3,65.2,59.2,63.8,59.3,55.6,89,81,65,30.10,30.01,8,1,12,0.00
2013-1-22,67.3,58.1,46.5,56.2,48.2,39.7,88,70,56,30.28,30.06,13,3,24,0.00
2013-1-23,68.5,54.2,43.0,52.2,43.8,37.2,83,69,51,30.36,30.27,10,2,15,0.00
2013-1-24,76.6,57.4,40.2,52.3,46.2,36.9,89,69,41,30.33,30.22,10,2,17,0.00
2013-1-25,78.4,60.2,48.5,59.6,51.3,45.1,92,74,45,30.31,30.18,6,1,10,0.00
2013-1-26,79.5,60.2,43.5,60.1,50.9,40.2,92,74,41,30.28,30.16,7,1,12,0.00
2013-1-27,80.1,65.1,51.4,65.4,57.9,48.0,88,79,52,30.32,30.23,8,2,12,0.00
2013-1-28,77.0,70.1,63.9,66.2,63.8,60.0,87,81,68,30.36,30.26,9,2,14,0.00
2013-1-29,80.0,72.0,64.0,69.9,65.7,59.4,87,81,70,30.28,30.13,11,3,17,0.00
2013-1-30,85.3,73.1,63.6,66.6,63.2,58.6,85,73,50,30.14,29.91,13,2,22,0.00
2013-1-31,69.3,59.6,46.5,63.8,45.9,32.2,86,63,30,30.23,29.90,16,3,26,0.06